sensor_id;sensor_type;location;lat;lon;timestamp;pressure;altitude;pressure_sealevel;temperature;humidity
5380;BME280;2713;42.680;23.310;2023-02-15T00:00:31;96285.63;;;4.57;69.53
5380;BME280;2713;42.680;23.310;2023-02-15T00:02:58;96293.34;;;4.57;69.74
5380;BME280;2713;42.680;23.310;2023-02-15T00:05:25;96299.47;;;4.68;68.66
5380;BME280;2713;42.680;23.310;2023-02-15T00:07:52;96299.03;;;4.50;69.46
5380;BME280;2713;42.680;23.310;2023-02-15T00:10:19;96295.91;;;4.57;69.94
5380;BME280;2713;42.680;23.310;2023-02-15T00:12:45;96297.56;;;4.58;69.61
5380;BME280;2713;42.680;23.310;2023-02-15T00:15:12;96310.22;;;4.62;69.73
5380;BME280;2713;42.680;23.310;2023-02-15T00:17:40;96309.25;;;4.51;69.19
5380;BME280;2713;42.680;23.310;2023-02-15T00:20:08;96306.72;;;4.39;70.34
5380;BME280;2713;42.680;23.310;2023-02-15T00:22:36;96303.81;;;4.43;70.64
5380;BME280;2713;42.680;23.310;2023-02-15T00:25:04;96311.09;;;4.49;70.18
5380;BME280;2713;42.680;23.310;2023-02-15T00:27:32;96302.72;;;4.58;70.17
5380;BME280;2713;42.680;23.310;2023-02-15T00:30:02;96309.47;;;4.48;69.31
5380;BME280;2713;42.680;23.310;2023-02-15T00:32:29;96290.03;;;4.44;69.54
5380;BME280;2713;42.680;23.310;2023-02-15T00:34:57;96311.75;;;4.64;69.41
5380;BME280;2713;42.680;23.310;2023-02-15T00:37:24;96313.53;;;4.75;69.51
5380;BME280;2713;42.680;23.310;2023-02-15T00:39:50;96320.56;;;4.84;69.02
5380;BME280;2713;42.680;23.310;2023-02-15T00:42:17;96311.38;;;4.57;69.11
5380;BME280;2713;42.680;23.310;2023-02-15T00:44:44;96312.34;;;4.68;68.82
5380;BME280;2713;42.680;23.310;2023-02-15T00:47:11;96311.31;;;4.81;69.31
5380;BME280;2713;42.680;23.310;2023-02-15T00:49:38;96310.94;;;4.75;68.99
5380;BME280;2713;42.680;23.310;2023-02-15T00:52:06;96306.91;;;4.59;68.88
5380;BME280;2713;42.680;23.310;2023-02-15T00:54:33;96309.91;;;4.42;70.09
5380;BME280;2713;42.680;23.310;2023-02-15T00:57:00;96316.25;;;4.49;69.96
5380;BME280;2713;42.680;23.310;2023-02-15T00:59:27;96310.69;;;4.67;69.52
5380;BME280;2713;42.680;23.310;2023-02-15T01:01:53;96312.78;;;4.62;69.41
5380;BME280;2713;42.680;23.310;2023-02-15T01:04:20;96305.06;;;4.73;69.06
5380;BME280;2713;42.680;23.310;2023-02-15T01:06:47;96304.28;;;4.72;69.11
5380;BME280;2713;42.680;23.310;2023-02-15T01:09:15;96303.59;;;4.81;68.86
5380;BME280;2713;42.680;23.310;2023-02-15T01:11:42;96306.63;;;4.86;69.13
5380;BME280;2713;42.680;23.310;2023-02-15T01:14:09;96305.81;;;4.75;68.33
5380;BME280;2713;42.680;23.310;2023-02-15T01:16:37;96294.63;;;4.63;69.73
5380;BME280;2713;42.680;23.310;2023-02-15T01:19:05;96298.22;;;4.38;70.26
5380;BME280;2713;42.680;23.310;2023-02-15T01:21:32;96303.38;;;4.49;69.32
5380;BME280;2713;42.680;23.310;2023-02-15T01:23:59;96303.75;;;4.56;70.02
5380;BME280;2713;42.680;23.310;2023-02-15T01:26:28;96301.75;;;4.48;70.48
5380;BME280;2713;42.680;23.310;2023-02-15T01:28:54;96293.06;;;4.49;69.99
5380;BME280;2713;42.680;23.310;2023-02-15T01:44:56;96281.41;;;4.56;69.52
5380;BME280;2713;42.680;23.310;2023-02-15T01:47:28;96284.16;;;4.42;70.30
5380;BME280;2713;42.680;23.310;2023-02-15T01:50:03;96283.97;;;4.56;69.91
5380;BME280;2713;42.680;23.310;2023-02-15T01:52:32;96277.72;;;4.37;70.66
5380;BME280;2713;42.680;23.310;2023-02-15T01:55:00;96276.59;;;4.17;70.81
5380;BME280;2713;42.680;23.310;2023-02-15T01:57:29;96276.94;;;4.47;71.10
5380;BME280;2713;42.680;23.310;2023-02-15T01:59:59;96278.75;;;4.34;71.38
5380;BME280;2713;42.680;23.310;2023-02-15T02:02:38;96270.47;;;4.42;71.27
5380;BME280;2713;42.680;23.310;2023-02-15T02:05:07;96256.53;;;4.33;70.83
5380;BME280;2713;42.680;23.310;2023-02-15T02:07:36;96270.59;;;4.40;70.44
5380;BME280;2713;42.680;23.310;2023-02-15T02:10:06;96270.25;;;4.10;71.42
5380;BME280;2713;42.680;23.310;2023-02-15T02:12:34;96272.41;;;4.27;71.06
5380;BME280;2713;42.680;23.310;2023-02-15T02:15:06;96268.88;;;4.28;70.72
5380;BME280;2713;42.680;23.310;2023-02-15T02:17:45;96251.81;;;4.27;71.10
5380;BME280;2713;42.680;23.310;2023-02-15T02:20:30;96277.63;;;4.49;70.96
5380;BME280;2713;42.680;23.310;2023-02-15T02:23:14;96277.13;;;4.33;70.89
5380;BME280;2713;42.680;23.310;2023-02-15T02:26:07;96258.06;;;4.12;71.73
5380;BME280;2713;42.680;23.310;2023-02-15T02:34:16;96286.91;;;4.52;70.56
5380;BME280;2713;42.680;23.310;2023-02-15T02:36:52;96287.44;;;4.79;69.32
5380;BME280;2713;42.680;23.310;2023-02-15T02:39:30;96275.47;;;4.67;69.89
5380;BME280;2713;42.680;23.310;2023-02-15T02:42:03;96291.47;;;4.59;70.13
5380;BME280;2713;42.680;23.310;2023-02-15T02:44:40;96285.16;;;4.64;70.31
5380;BME280;2713;42.680;23.310;2023-02-15T02:47:12;96281.06;;;4.61;69.89
5380;BME280;2713;42.680;23.310;2023-02-15T02:49:42;96295.69;;;4.60;70.88
5380;BME280;2713;42.680;23.310;2023-02-15T02:52:37;96287.28;;;4.70;70.23
5380;BME280;2713;42.680;23.310;2023-02-15T02:55:08;96282.78;;;4.49;70.44
5380;BME280;2713;42.680;23.310;2023-02-15T02:57:38;96294.63;;;4.63;70.23
5380;BME280;2713;42.680;23.310;2023-02-15T03:00:08;96293.13;;;4.60;70.27
5380;BME280;2713;42.680;23.310;2023-02-15T03:02:38;96297.34;;;4.62;71.22
5380;BME280;2713;42.680;23.310;2023-02-15T03:05:11;96275.78;;;4.51;70.60
5380;BME280;2713;42.680;23.310;2023-02-15T03:07:42;96302.63;;;4.71;70.06
5380;BME280;2713;42.680;23.310;2023-02-15T03:10:13;96302.25;;;4.65;69.96
5380;BME280;2713;42.680;23.310;2023-02-15T03:12:42;96304.41;;;4.47;71.35
5380;BME280;2713;42.680;23.310;2023-02-15T03:15:12;96309.75;;;4.68;70.55
5380;BME280;2713;42.680;23.310;2023-02-15T03:17:43;96302.00;;;4.56;70.53
5380;BME280;2713;42.680;23.310;2023-02-15T03:20:16;96309.38;;;4.61;70.81
5380;BME280;2713;42.680;23.310;2023-02-15T03:22:48;96302.75;;;4.81;70.78
5380;BME280;2713;42.680;23.310;2023-02-15T03:25:19;96303.91;;;4.66;71.08
5380;BME280;2713;42.680;23.310;2023-02-15T03:27:53;96313.63;;;4.73;71.30
5380;BME280;2713;42.680;23.310;2023-02-15T03:30:22;96310.25;;;4.84;70.19
5380;BME280;2713;42.680;23.310;2023-02-15T03:32:50;96307.09;;;4.80;70.46
5380;BME280;2713;42.680;23.310;2023-02-15T03:35:22;96305.34;;;4.81;70.25
5380;BME280;2713;42.680;23.310;2023-02-15T03:37:52;96306.16;;;4.81;70.29
5380;BME280;2713;42.680;23.310;2023-02-15T03:40:23;96316.38;;;4.83;71.07
5380;BME280;2713;42.680;23.310;2023-02-15T03:43:14;96299.38;;;4.69;70.69
5380;BME280;2713;42.680;23.310;2023-02-15T03:45:46;96302.72;;;4.70;71.49
5380;BME280;2713;42.680;23.310;2023-02-15T03:48:24;96302.75;;;4.81;70.46
5380;BME280;2713;42.680;23.310;2023-02-15T03:50:56;96298.31;;;4.72;70.23
5380;BME280;2713;42.680;23.310;2023-02-15T03:53:42;96305.19;;;4.71;71.04
5380;BME280;2713;42.680;23.310;2023-02-15T03:56:09;96302.72;;;4.58;71.53
5380;BME280;2713;42.680;23.310;2023-02-15T03:58:36;96302.50;;;4.62;71.85
5380;BME280;2713;42.680;23.310;2023-02-15T04:01:26;96305.28;;;4.58;71.56
5380;BME280;2713;42.680;23.310;2023-02-15T04:04:37;96309.25;;;4.51;71.36
5380;BME280;2713;42.680;23.310;2023-02-15T04:07:06;96305.53;;;4.67;71.05
5380;BME280;2713;42.680;23.310;2023-02-15T04:09:33;96310.03;;;4.76;70.57
5380;BME280;2713;42.680;23.310;2023-02-15T04:12:18;96312.34;;;4.68;71.00
5380;BME280;2713;42.680;23.310;2023-02-15T04:14:44;96321.63;;;4.81;70.38
5380;BME280;2713;42.680;23.310;2023-02-15T04:17:29;96326.88;;;4.80;70.97
5380;BME280;2713;42.680;23.310;2023-02-15T04:19:57;96320.34;;;4.76;70.71
5380;BME280;2713;42.680;23.310;2023-02-15T04:22:41;96322.22;;;4.85;70.86
5380;BME280;2713;42.680;23.310;2023-02-15T04:25:26;96333.72;;;4.92;70.77
5380;BME280;2713;42.680;23.310;2023-02-15T04:27:53;96307.34;;;4.88;70.29
5380;BME280;2713;42.680;23.310;2023-02-15T04:30:23;96342.03;;;4.95;70.18
5380;BME280;2713;42.680;23.310;2023-02-15T04:32:50;96347.88;;;4.97;70.18
5380;BME280;2713;42.680;23.310;2023-02-15T04:35:18;96348.75;;;4.74;71.36
5380;BME280;2713;42.680;23.310;2023-02-15T04:37:45;96338.47;;;4.74;70.87
5380;BME280;2713;42.680;23.310;2023-02-15T04:40:14;96347.47;;;4.80;71.43
5380;BME280;2713;42.680;23.310;2023-02-15T04:42:43;96349.84;;;4.83;71.08
5380;BME280;2713;42.680;23.310;2023-02-15T04:45:10;96348.19;;;4.82;71.17
5380;BME280;2713;42.680;23.310;2023-02-15T04:47:37;96349.75;;;4.95;70.36
5380;BME280;2713;42.680;23.310;2023-02-15T04:50:05;96343.50;;;4.87;71.56
5380;BME280;2713;42.680;23.310;2023-02-15T04:52:34;96344.81;;;4.81;71.52
5380;BME280;2713;42.680;23.310;2023-02-15T04:55:01;96354.28;;;4.81;72.12
5380;BME280;2713;42.680;23.310;2023-02-15T04:57:27;96352.66;;;4.91;70.97
5380;BME280;2713;42.680;23.310;2023-02-15T04:59:54;96356.81;;;4.70;71.12
5380;BME280;2713;42.680;23.310;2023-02-15T05:02:21;96361.81;;;4.60;72.67
5380;BME280;2713;42.680;23.310;2023-02-15T05:04:48;96364.00;;;4.53;72.16
5380;BME280;2713;42.680;23.310;2023-02-15T05:07:14;96350.81;;;4.58;72.54
5380;BME280;2713;42.680;23.310;2023-02-15T05:09:42;96353.59;;;4.79;72.45
5380;BME280;2713;42.680;23.310;2023-02-15T05:12:09;96361.72;;;4.96;71.36
5380;BME280;2713;42.680;23.310;2023-02-15T05:14:36;96363.16;;;5.11;70.40
5380;BME280;2713;42.680;23.310;2023-02-15T05:17:03;96373.09;;;5.05;71.00
5380;BME280;2713;42.680;23.310;2023-02-15T05:19:31;96365.78;;;4.88;71.80
5380;BME280;2713;42.680;23.310;2023-02-15T05:21:57;96368.81;;;4.82;71.45
5380;BME280;2713;42.680;23.310;2023-02-15T05:24:24;96371.53;;;4.91;71.33
5380;BME280;2713;42.680;23.310;2023-02-15T05:27:11;96376.31;;;4.85;71.35
5380;BME280;2713;42.680;23.310;2023-02-15T05:29:55;96379.97;;;4.58;72.03
5380;BME280;2713;42.680;23.310;2023-02-15T05:32:22;96380.34;;;4.65;72.80
5380;BME280;2713;42.680;23.310;2023-02-15T05:34:49;96384.13;;;4.72;72.44
5380;BME280;2713;42.680;23.310;2023-02-15T05:37:16;96385.88;;;4.72;72.14
5380;BME280;2713;42.680;23.310;2023-02-15T05:39:43;96391.25;;;4.69;72.52
5380;BME280;2713;42.680;23.310;2023-02-15T05:42:11;96393.53;;;4.60;72.39
5380;BME280;2713;42.680;23.310;2023-02-15T05:44:38;96388.75;;;4.67;72.67
5380;BME280;2713;42.680;23.310;2023-02-15T05:47:05;96395.09;;;4.98;71.60
5380;BME280;2713;42.680;23.310;2023-02-15T05:49:33;96393.56;;;4.95;70.45
5380;BME280;2713;42.680;23.310;2023-02-15T05:51:59;96389.50;;;4.80;71.68
5380;BME280;2713;42.680;23.310;2023-02-15T05:54:26;96393.56;;;4.95;71.48
5380;BME280;2713;42.680;23.310;2023-02-15T05:56:54;96394.28;;;5.08;70.75
5380;BME280;2713;42.680;23.310;2023-02-15T05:59:22;96397.97;;;5.17;70.09
5380;BME280;2713;42.680;23.310;2023-02-15T06:01:49;96389.09;;;4.97;70.53
5380;BME280;2713;42.680;23.310;2023-02-15T06:04:16;96399.34;;;5.21;70.14
5380;BME280;2713;42.680;23.310;2023-02-15T06:06:42;96395.59;;;5.03;70.20
5380;BME280;2713;42.680;23.310;2023-02-15T06:09:10;96395.75;;;4.89;70.76
5380;BME280;2713;42.680;23.310;2023-02-15T06:11:37;96403.50;;;4.89;70.34
5380;BME280;2713;42.680;23.310;2023-02-15T06:14:04;96394.47;;;4.94;70.52
5380;BME280;2713;42.680;23.310;2023-02-15T06:16:32;96400.47;;;4.95;70.84
5380;BME280;2713;42.680;23.310;2023-02-15T06:18:58;96390.19;;;5.06;70.11
5380;BME280;2713;42.680;23.310;2023-02-15T06:21:26;96398.16;;;5.03;70.24
5380;BME280;2713;42.680;23.310;2023-02-15T06:23:53;96397.94;;;5.06;71.20
5380;BME280;2713;42.680;23.310;2023-02-15T06:26:20;96381.13;;;4.89;70.30
5380;BME280;2713;42.680;23.310;2023-02-15T06:28:47;96408.47;;;5.14;69.89
5380;BME280;2713;42.680;23.310;2023-02-15T06:31:13;96405.44;;;5.09;70.24
5380;BME280;2713;42.680;23.310;2023-02-15T06:33:42;96404.47;;;4.99;70.84
5380;BME280;2713;42.680;23.310;2023-02-15T06:36:08;96399.78;;;5.04;70.80
5380;BME280;2713;42.680;23.310;2023-02-15T06:38:36;96400.72;;;5.03;70.95
5380;BME280;2713;42.680;23.310;2023-02-15T06:41:03;96400.09;;;5.34;69.94
5380;BME280;2713;42.680;23.310;2023-02-15T06:43:30;96401.97;;;5.32;69.28
5380;BME280;2713;42.680;23.310;2023-02-15T06:45:57;96397.75;;;5.42;69.20
5380;BME280;2713;42.680;23.310;2023-02-15T06:48:24;96405.69;;;5.28;68.97
5380;BME280;2713;42.680;23.310;2023-02-15T06:50:52;96399.41;;;4.97;69.72
5380;BME280;2713;42.680;23.310;2023-02-15T06:53:19;96400.66;;;5.16;69.43
5380;BME280;2713;42.680;23.310;2023-02-15T06:55:45;96404.31;;;5.35;69.44
5380;BME280;2713;42.680;23.310;2023-02-15T06:58:12;96391.63;;;5.21;69.16
5380;BME280;2713;42.680;23.310;2023-02-15T07:00:39;96399.22;;;5.11;69.72
5380;BME280;2713;42.680;23.310;2023-02-15T07:03:06;96400.31;;;5.20;68.95
5380;BME280;2713;42.680;23.310;2023-02-15T07:05:33;96399.34;;;5.10;69.27
5380;BME280;2713;42.680;23.310;2023-02-15T07:08:02;96412.00;;;5.24;69.06
5380;BME280;2713;42.680;23.310;2023-02-15T07:10:29;96412.41;;;5.42;68.18
5380;BME280;2713;42.680;23.310;2023-02-15T07:12:56;96404.78;;;5.29;68.81
5380;BME280;2713;42.680;23.310;2023-02-15T07:15:22;96400.44;;;5.30;68.15
5380;BME280;2713;42.680;23.310;2023-02-15T07:17:49;96403.38;;;5.36;68.19
5380;BME280;2713;42.680;23.310;2023-02-15T07:20:18;96410.84;;;5.28;68.00
5380;BME280;2713;42.680;23.310;2023-02-15T07:22:45;96413.69;;;5.36;67.84
5380;BME280;2713;42.680;23.310;2023-02-15T07:25:14;96417.50;;;5.54;67.14
5380;BME280;2713;42.680;23.310;2023-02-15T07:27:41;96416.56;;;5.67;67.09
5380;BME280;2713;42.680;23.310;2023-02-15T07:30:12;96423.59;;;5.76;66.47
5380;BME280;2713;42.680;23.310;2023-02-15T07:32:39;96414.91;;;5.54;66.76
5380;BME280;2713;42.680;23.310;2023-02-15T07:35:26;96411.00;;;5.38;67.80
5380;BME280;2713;42.680;23.310;2023-02-15T07:37:54;96400.47;;;5.41;67.84
5380;BME280;2713;42.680;23.310;2023-02-15T07:40:22;96401.16;;;5.43;68.10
5380;BME280;2713;42.680;23.310;2023-02-15T07:42:49;96401.19;;;5.54;67.16
5380;BME280;2713;42.680;23.310;2023-02-15T07:45:18;96403.88;;;5.63;67.71
5380;BME280;2713;42.680;23.310;2023-02-15T07:47:45;96404.47;;;5.67;66.91
5380;BME280;2713;42.680;23.310;2023-02-15T07:50:12;96396.59;;;5.46;66.91
5380;BME280;2713;42.680;23.310;2023-02-15T07:52:39;96396.03;;;5.54;67.63
5380;BME280;2713;42.680;23.310;2023-02-15T07:55:06;96396.13;;;5.41;67.92
5380;BME280;2713;42.680;23.310;2023-02-15T07:57:35;96399.66;;;5.62;67.36
5380;BME280;2713;42.680;23.310;2023-02-15T08:00:02;96385.13;;;5.73;66.34
5380;BME280;2713;42.680;23.310;2023-02-15T08:02:38;96395.66;;;5.58;67.70
5380;BME280;2713;42.680;23.310;2023-02-15T08:05:05;96405.38;;;5.55;68.16
5380;BME280;2713;42.680;23.310;2023-02-15T08:07:32;96388.38;;;5.41;67.41
5380;BME280;2713;42.680;23.310;2023-02-15T08:09:59;96397.06;;;5.51;68.45
5380;BME280;2713;42.680;23.310;2023-02-15T08:12:26;96404.56;;;5.43;67.85
5380;BME280;2713;42.680;23.310;2023-02-15T08:14:54;96409.97;;;5.40;68.62
5380;BME280;2713;42.680;23.310;2023-02-15T08:17:21;96399.09;;;5.48;67.88
5380;BME280;2713;42.680;23.310;2023-02-15T08:19:48;96413.25;;;5.76;67.28
5380;BME280;2713;42.680;23.310;2023-02-15T08:22:15;96399.66;;;5.62;66.65
5380;BME280;2713;42.680;23.310;2023-02-15T08:24:42;96403.34;;;6.04;66.01
5380;BME280;2713;42.680;23.310;2023-02-15T08:27:10;96407.66;;;6.04;65.53
5380;BME280;2713;42.680;23.310;2023-02-15T08:29:38;96402.06;;;5.99;65.69
5380;BME280;2713;42.680;23.310;2023-02-15T08:32:09;96409.22;;;5.95;65.37
5380;BME280;2713;42.680;23.310;2023-02-15T08:34:39;96412.84;;;5.93;65.36
5380;BME280;2713;42.680;23.310;2023-02-15T08:37:06;96404.34;;;5.69;65.46
5380;BME280;2713;42.680;23.310;2023-02-15T08:39:33;96405.06;;;5.71;66.53
5380;BME280;2713;42.680;23.310;2023-02-15T08:42:00;96408.00;;;5.77;65.13
5380;BME280;2713;42.680;23.310;2023-02-15T08:44:27;96396.63;;;5.80;64.55
5380;BME280;2713;42.680;23.310;2023-02-15T08:46:55;96413.78;;;5.92;64.15
5380;BME280;2713;42.680;23.310;2023-02-15T08:49:25;96421.78;;;5.89;64.26
5380;BME280;2713;42.680;23.310;2023-02-15T08:51:52;96422.09;;;5.84;63.78
5380;BME280;2713;42.680;23.310;2023-02-15T08:54:20;96417.97;;;5.71;64.71
5380;BME280;2713;42.680;23.310;2023-02-15T08:56:47;96414.81;;;5.89;64.34
5380;BME280;2713;42.680;23.310;2023-02-15T08:59:19;96423.00;;;5.83;64.38
5380;BME280;2713;42.680;23.310;2023-02-15T09:01:47;96416.34;;;6.14;63.33
5380;BME280;2713;42.680;23.310;2023-02-15T09:04:15;96429.34;;;6.24;62.56
5380;BME280;2713;42.680;23.310;2023-02-15T09:06:45;96420.34;;;6.07;63.09
5380;BME280;2713;42.680;23.310;2023-02-15T09:09:12;96406.41;;;5.98;63.09
5380;BME280;2713;42.680;23.310;2023-02-15T09:11:41;96419.75;;;6.03;64.08
5380;BME280;2713;42.680;23.310;2023-02-15T09:14:09;96420.34;;;6.07;63.45
5380;BME280;2713;42.680;23.310;2023-02-15T09:16:39;96427.81;;;6.43;62.67
5380;BME280;2713;42.680;23.310;2023-02-15T09:19:07;96405.78;;;6.28;62.31
5380;BME280;2713;42.680;23.310;2023-02-15T09:21:36;96413.69;;;6.47;62.10
5380;BME280;2713;42.680;23.310;2023-02-15T09:24:09;96421.00;;;6.42;62.22
5380;BME280;2713;42.680;23.310;2023-02-15T09:26:41;96406.31;;;6.54;61.77
5380;BME280;2713;42.680;23.310;2023-02-15T09:29:09;96410.44;;;6.45;61.26
5380;BME280;2713;42.680;23.310;2023-02-15T09:31:39;96417.50;;;6.32;61.90
5380;BME280;2713;42.680;23.310;2023-02-15T09:34:06;96417.13;;;6.48;61.42
5380;BME280;2713;42.680;23.310;2023-02-15T09:36:35;96417.91;;;6.59;61.76
5380;BME280;2713;42.680;23.310;2023-02-15T09:39:06;96415.44;;;6.58;61.69
5380;BME280;2713;42.680;23.310;2023-02-15T09:44:34;96415.34;;;6.48;62.29
5380;BME280;2713;42.680;23.310;2023-02-15T09:47:23;96420.91;;;6.33;62.37
5380;BME280;2713;42.680;23.310;2023-02-15T09:49:58;96408.59;;;6.25;62.53
5380;BME280;2713;42.680;23.310;2023-02-15T09:52:39;96406.00;;;6.36;62.47
5380;BME280;2713;42.680;23.310;2023-02-15T09:55:28;96416.09;;;6.39;61.58
5380;BME280;2713;42.680;23.310;2023-02-15T09:58:33;96415.03;;;6.42;61.49
5380;BME280;2713;42.680;23.310;2023-02-15T10:01:09;96411.69;;;6.62;61.36
5380;BME280;2713;42.680;23.310;2023-02-15T10:03:54;96405.59;;;6.63;61.65
5380;BME280;2713;42.680;23.310;2023-02-15T10:06:31;96407.16;;;6.75;61.58
5380;BME280;2713;42.680;23.310;2023-02-15T10:09:06;96399.28;;;6.88;60.78
5380;BME280;2713;42.680;23.310;2023-02-15T10:11:56;96398.97;;;6.70;61.10
5380;BME280;2713;42.680;23.310;2023-02-15T10:14:42;96406.78;;;6.91;60.54
5380;BME280;2713;42.680;23.310;2023-02-15T10:17:23;96391.97;;;7.13;59.51
5380;BME280;2713;42.680;23.310;2023-02-15T10:20:03;96398.97;;;7.02;59.25
5380;BME280;2713;42.680;23.310;2023-02-15T10:22:40;96400.34;;;7.06;59.50
5380;BME280;2713;42.680;23.310;2023-02-15T10:25:28;96379.97;;;6.92;59.63
5380;BME280;2713;42.680;23.310;2023-02-15T10:28:03;96380.06;;;7.22;60.88
5380;BME280;2713;42.680;23.310;2023-02-15T10:30:40;96377.75;;;7.19;59.43
5380;BME280;2713;42.680;23.310;2023-02-15T10:33:15;96374.28;;;6.77;60.80
5380;BME280;2713;42.680;23.310;2023-02-15T10:35:52;96384.69;;;6.87;60.07
5380;BME280;2713;42.680;23.310;2023-02-15T10:38:29;96378.03;;;7.05;60.20
5380;BME280;2713;42.680;23.310;2023-02-15T10:41:11;96375.16;;;7.19;60.38
5380;BME280;2713;42.680;23.310;2023-02-15T10:43:55;96371.06;;;7.47;60.65
5380;BME280;2713;42.680;23.310;2023-02-15T10:49:39;96354.13;;;7.33;58.22
5380;BME280;2713;42.680;23.310;2023-02-15T10:52:18;96360.94;;;7.34;59.13
5380;BME280;2713;42.680;23.310;2023-02-15T10:54:53;96367.19;;;7.32;59.92
5380;BME280;2713;42.680;23.310;2023-02-15T10:57:26;96367.63;;;7.37;59.18
5380;BME280;2713;42.680;23.310;2023-02-15T11:00:04;96362.28;;;7.08;59.60
5380;BME280;2713;42.680;23.310;2023-02-15T11:02:48;96356.59;;;7.14;59.80
5380;BME280;2713;42.680;23.310;2023-02-15T11:05:36;96354.00;;;7.35;58.85
5380;BME280;2713;42.680;23.310;2023-02-15T11:08:07;96361.09;;;7.12;59.52
5380;BME280;2713;42.680;23.310;2023-02-15T11:10:38;96357.28;;;6.95;60.29
5380;BME280;2713;42.680;23.310;2023-02-15T11:13:09;96353.16;;;6.72;61.56
5380;BME280;2713;42.680;23.310;2023-02-15T11:15:42;96359.63;;;6.78;60.32
5380;BME280;2713;42.680;23.310;2023-02-15T11:18:15;96361.81;;;7.03;59.90
5380;BME280;2713;42.680;23.310;2023-02-15T11:20:51;96357.59;;;7.23;59.47
5380;BME280;2713;42.680;23.310;2023-02-15T11:23:20;96357.78;;;7.31;59.96
5380;BME280;2713;42.680;23.310;2023-02-15T11:25:55;96358.81;;;7.19;59.59
5380;BME280;2713;42.680;23.310;2023-02-15T11:28:25;96353.81;;;7.27;59.35
5380;BME280;2713;42.680;23.310;2023-02-15T11:30:56;96350.84;;;7.31;58.49
5380;BME280;2713;42.680;23.310;2023-02-15T11:33:27;96361.50;;;7.38;58.62
5380;BME280;2713;42.680;23.310;2023-02-15T11:35:59;96353.94;;;7.76;57.71
5380;BME280;2713;42.680;23.310;2023-02-15T11:38:30;96354.09;;;8.24;56.68
5380;BME280;2713;42.680;23.310;2023-02-15T11:41:02;96347.56;;;8.30;55.35
5380;BME280;2713;42.680;23.310;2023-02-15T11:43:34;96348.19;;;8.12;56.00
5380;BME280;2713;42.680;23.310;2023-02-15T11:46:03;96354.28;;;8.02;56.10
5380;BME280;2713;42.680;23.310;2023-02-15T11:48:32;96344.03;;;8.31;55.63
5380;BME280;2713;42.680;23.310;2023-02-15T11:50:59;96329.84;;;8.25;55.69
5380;BME280;2713;42.680;23.310;2023-02-15T11:53:32;96329.53;;;8.18;55.83
5380;BME280;2713;42.680;23.310;2023-02-15T11:56:00;96327.41;;;8.33;55.20
5380;BME280;2713;42.680;23.310;2023-02-15T11:58:32;96309.97;;;8.35;55.08
5380;BME280;2713;42.680;23.310;2023-02-15T12:01:07;96287.28;;;8.18;54.78
5380;BME280;2713;42.680;23.310;2023-02-15T12:03:48;96307.66;;;8.51;54.80
5380;BME280;2713;42.680;23.310;2023-02-15T12:06:27;96305.75;;;8.53;54.65
5380;BME280;2713;42.680;23.310;2023-02-15T12:09:00;96293.56;;;8.25;54.84
5380;BME280;2713;42.680;23.310;2023-02-15T12:11:32;96296.59;;;8.30;54.92
5380;BME280;2713;42.680;23.310;2023-02-15T12:14:01;96294.16;;;8.77;53.92
5380;BME280;2713;42.680;23.310;2023-02-15T12:16:33;96297.69;;;8.76;53.28
5380;BME280;2713;42.680;23.310;2023-02-15T12:19:02;96302.88;;;8.76;53.86
5380;BME280;2713;42.680;23.310;2023-02-15T12:21:32;96299.34;;;8.77;53.16
5380;BME280;2713;42.680;23.310;2023-02-15T12:24:03;96288.41;;;8.83;53.47
5380;BME280;2713;42.680;23.310;2023-02-15T12:26:36;96291.94;;;8.91;52.76
5380;BME280;2713;42.680;23.310;2023-02-15T12:29:09;96290.31;;;8.71;53.57
5380;BME280;2713;42.680;23.310;2023-02-15T12:31:40;96295.25;;;8.45;54.23
5380;BME280;2713;42.680;23.310;2023-02-15T12:34:12;96289.50;;;8.32;55.00
5380;BME280;2713;42.680;23.310;2023-02-15T12:36:43;96286.22;;;8.30;54.81
5380;BME280;2713;42.680;23.310;2023-02-15T12:39:20;96272.84;;;8.25;54.54
5380;BME280;2713;42.680;23.310;2023-02-15T12:41:58;96270.38;;;8.14;55.61
5380;BME280;2713;42.680;23.310;2023-02-15T12:44:27;96272.44;;;8.20;55.85
5380;BME280;2713;42.680;23.310;2023-02-15T12:46:57;96277.78;;;8.47;55.41
5380;BME280;2713;42.680;23.310;2023-02-15T12:49:29;96257.88;;;8.48;54.97
5380;BME280;2713;42.680;23.310;2023-02-15T12:52:10;96221.03;;;8.15;55.33
5380;BME280;2713;42.680;23.310;2023-02-15T12:54:50;96241.75;;;8.15;55.04
5380;BME280;2713;42.680;23.310;2023-02-15T12:57:26;96243.38;;;8.26;54.65
5380;BME280;2713;42.680;23.310;2023-02-15T12:59:58;96246.69;;;8.38;54.64
5380;BME280;2713;42.680;23.310;2023-02-15T13:02:29;96254.59;;;8.36;54.75
5380;BME280;2713;42.680;23.310;2023-02-15T13:05:10;96256.50;;;8.53;54.27
5380;BME280;2713;42.680;23.310;2023-02-15T13:07:45;96250.78;;;8.59;54.07
5380;BME280;2713;42.680;23.310;2023-02-15T13:10:21;96253.38;;;8.31;54.54
5380;BME280;2713;42.680;23.310;2023-02-15T13:12:50;96240.91;;;8.15;55.06
5380;BME280;2713;42.680;23.310;2023-02-15T13:15:28;96245.88;;;8.37;55.48
5380;BME280;2713;42.680;23.310;2023-02-15T13:17:57;96240.16;;;8.43;54.95
5380;BME280;2713;42.680;23.310;2023-02-15T13:20:27;96240.78;;;8.26;55.81
5380;BME280;2713;42.680;23.310;2023-02-15T13:22:58;96229.34;;;8.19;55.95
5380;BME280;2713;42.680;23.310;2023-02-15T13:25:35;96238.00;;;8.39;54.88
5380;BME280;2713;42.680;23.310;2023-02-15T13:28:06;96241.25;;;8.50;55.20
5380;BME280;2713;42.680;23.310;2023-02-15T13:30:43;96238.09;;;8.56;54.81
5380;BME280;2713;42.680;23.310;2023-02-15T13:33:16;96234.69;;;8.37;55.19
5380;BME280;2713;42.680;23.310;2023-02-15T13:35:54;96242.16;;;8.21;55.82
5380;BME280;2713;42.680;23.310;2023-02-15T13:38:51;96244.34;;;8.06;55.99
5380;BME280;2713;42.680;23.310;2023-02-15T13:41:25;96241.47;;;8.09;56.09
5380;BME280;2713;42.680;23.310;2023-02-15T13:44:03;96249.50;;;8.06;55.87
5380;BME280;2713;42.680;23.310;2023-02-15T13:46:46;96254.28;;;8.20;55.48
5380;BME280;2713;42.680;23.310;2023-02-15T13:49:28;96248.34;;;8.39;55.36
5380;BME280;2713;42.680;23.310;2023-02-15T13:52:05;96251.47;;;8.52;54.70
5380;BME280;2713;42.680;23.310;2023-02-15T13:54:49;96249.00;;;8.50;54.70
5380;BME280;2713;42.680;23.310;2023-02-15T13:57:31;96260.47;;;8.48;55.39
5380;BME280;2713;42.680;23.310;2023-02-15T14:00:15;96255.41;;;8.46;55.14
5380;BME280;2713;42.680;23.310;2023-02-15T14:03:16;96257.72;;;8.49;55.64
5380;BME280;2713;42.680;23.310;2023-02-15T14:05:56;96258.03;;;8.56;55.39
5380;BME280;2713;42.680;23.310;2023-02-15T14:08:41;96265.50;;;8.69;55.22
5380;BME280;2713;42.680;23.310;2023-02-15T14:11:17;96253.25;;;8.42;55.16